Fostoria, IA (51340)

4:55 AM CDT on October 22, 2014 (GMT -0500)
Mulberry Grove Family Farm | Change Station
CLOSE
Current Station
Personal Weather Station
Location: Milford, IA
Elevation: 1453 ft
Nearby Weather Stations

Elev 1453 ft 43.27 °N, 95.26 °W | Updated 2 seconds ago

Mostly Cloudy
Mostly Cloudy
48.0 °F
Feels Like 43 °F
N
12.0
Wind Variable Wind from SE
Gusts 16.0 mph

Today
High -- | Low -- °F
--% Chance of Precip.
Yesterday
High -- | Low -- °F
Precip. -- in
7:43 AM 6:26 PM
Waning Crescent, 2% visible
Pressure 30.12 in
Visibility 10.0 miles
Clouds Mostly Cloudy 5000 ft
Windchill 43 °F
Dew Point 42 °F
Humidity 78%
Rainfall 0.00 in
Snow Depth Not available.
UV 0 out of 12
Pollen 2.30 out of 12
Air Quality Not available.
Flu Activity Sporadic
METAR KSPW 220853Z AUTO 15015KT 10SM BKN050 09/04 A3011 RMK AO2 SLP198 T00890044 53001 TSNO

More Conditions Fewer Conditions

Pressure 30.12 in
Visibility 10.0 miles
Clouds Mostly Cloudy 5000 ft
Windchill 43 °F
Dew Point 42 °F
Humidity 78%
Rainfall 0.00 in
Snow Depth Not available.
UV 0 out of 12
Pollen 2.30 out of 12
Air Quality Not available.
Flu Activity Sporadic
METAR KSPW 220853Z AUTO 15015KT 10SM BKN050 09/04 A3011 RMK AO2 SLP198 T00890044 53001 TSNO

More Conditions Fewer Conditions

10-Day Weather Forecast

Almanac

Astronomy

Oct. 22, 2014 Rise Set
Actual Time 7:43 AM CDT 6:26 PM CDT
Civil Twilight 7:14 AM CDT 6:55 PM CDT
Nautical Twilight 6:40 AM CDT 7:28 PM CDT
Astronomical Twilight 6:07 AM CDT 8:01 PM CDT
Moon 6:23 AM CDT 5:55 PM CDT
Length of Visible Light 11h 41m
Length of Day
10h 43m
Tomorrow will be 2m 46s shorter.
Waning Crescent, 2% of the Moon is Illuminated
Today
Waning Crescent
Oct 23
New
Oct 30
First Quarter
Nov 6
Full
Nov 14
Last Quarter

Today's Extremes

State Highs State Lows

Community

WunderPhotos

Upload Photos

1,763,900 photos uploaded!

Nearby

Snow Depth

Station Depth Elevation
No new snow has been reported.

Earthquake Activity

City Distance Mag. Time & Date
No recent earthquake activity has been reported nearby.
Minimum magnitude displayed is 2.5.

Coastal Water Temperatures

Place Temperature
No Stations Reporting

Nearby Weather Stations